This is the latest recevied weather packets stored in our database for station/object NK2J. If no packets are shown the sender has not sent any weather packets the latest 10 day(s).
| Time | Temp. | Humidity | Pressure | Rain* | Wind** | Luminosity | Snow |
|---|---|---|---|---|---|---|---|
| 1777730538 | 23.89° C | 35% | 1015.6 hPa | 0 mm | - | 68 W/m² | - |
| 1777730233 | 22.78° C | 35% | 1015.5 hPa | 0 mm | - | 72 W/m² | - |
| 1777729930 | 22.78° C | 37% | 1015.5 hPa | 0 mm | - | 68 W/m² | - |
| 1777729626 | 22.78° C | 35% | 1015.3 hPa | 0 mm | - | 42 W/m² | - |
| 1777729324 | 21.11° C | 38% | 1015.1 hPa | 0 mm | - | 34 W/m² | - |
| 1777729020 | 20.56° C | 39% | 1015.1 hPa | 0 mm | - | 33 W/m² | - |
| 1777728716 | 20.56° C | 40% | 1015 hPa | 0 mm | - | 30 W/m² | - |
| 1777728413 | 20.56° C | 39% | 1014.8 hPa | 0 mm | - | 28 W/m² | - |
| 1777728110 | 20.56° C | 38% | 1014.9 hPa | 0 mm | - | 26 W/m² | - |
| 1777727808 | 20.56° C | 38% | 1014.7 hPa | 0 mm | - | 23 W/m² | - |
| 1777727504 | 20.56° C | 37% | 1014.6 hPa | 0 mm | - | 21 W/m² | - |
| 1777727202 | 20.56° C | 36% | 1014.5 hPa | 0 mm | - | 18 W/m² | - |
| 1777726900 | 20.56° C | 36% | 1014.4 hPa | 0 mm | - | 15 W/m² | - |
| 1777726595 | 20.56° C | 35% | 1014.5 hPa | 0 mm | - | 12 W/m² | - |
| 1777726293 | 20° C | 35% | 1014.3 hPa | 0 mm | - | 9 W/m² | - |
| 1777725989 | 20° C | 35% | 1014.1 hPa | 0 mm | - | 6 W/m² | - |
| 1777725686 | 20.56° C | 34% | 1014.2 hPa | 0 mm | - | 4 W/m² | - |
| 1777725385 | 20.56° C | 33% | 1014 hPa | 0 mm | - | 2 W/m² | - |
| 1777725081 | 21.11° C | 32% | 1014.2 hPa | 0 mm | - | 1 W/m² | - |
| 1777724778 | 21.11° C | 31% | 1014 hPa | 0 mm | - | 0 W/m² | - |
| 1777724475 | 20.56° C | 31% | 1013.9 hPa | 0 mm | - | 0 W/m² | - |
| 1777724173 | 20.56° C | 30% | 1014.1 hPa | 0 mm | - | 0 W/m² | - |
| 1777723870 | 20° C | 30% | 1013.8 hPa | 0 mm | - | 0 W/m² | - |
| 1777723566 | 19.44° C | 30% | 1013.8 hPa | 0 mm | - | 0 W/m² | - |
| 1777723263 | 19.44° C | 29% | 1013.8 hPa | 0 mm | - | 0 W/m² | - |
* Rain latest hour (hover to see other rain measurements)
** Current wind speed in m/s (hover to see current wind gust speed)